עמוד ראשי
METAR-TAF:

METAR-TAF

שדות תעופה :

ראס אל-ח'ימה, איחוד האמירויות הערביות

קו רוחב: 25-37N, קו אורך: 055-56E, גובה: 31מטר

תצפית מזג אוויר נוכחית

הדו"ח נערך לפני 55דקות, בשעה 19:00 UTC
רוח 4קשר מכיוון דרום
טמפרטורת 32 צלסיוס
לחות 38%
לחץ 1001 hPa
ראות 10 קילומטר או יותר
ללא עננים שבסיסם נמוך מ 5000 רגל או קומולונימבוס

METAR: OMRK 131900Z 18004KT CAVOK 32/16 Q1000 A2955

זמן: 23:55 (19:55 UTC)

תחזית

הדו"ח נערך לפני 2 שעות ו 55דקות, בשעה 17:00 UTC
תחזית בתוקף מ 13 ב 18 UTC עד 15 ב 00 UTC
רוח 5קשר מכיוון דרום
ראות: 8000מטר
יעשה מ
14 ב 06 UTC עד 14 ב 08 UTC
רוח 13קשר מכיוון מערב
יעשה מ
14 ב 15 UTC עד 14 ב 17 UTC
רוח 2קשר עם כיוונים משתנים

TAF: OMRK 131700Z 1318/1500 17005KT 8000 NSC BECMG 1406/1408 28013KT BECMG 1415/1417 VRB02KT

תצפיות ותחזיות מזג אוויר לגבי יותר מ- 4,000 שדות תעופה ברחבי העולם. דוחות METAR ו- TAF.

התחנות הזמינות מסומנות בנקודות צהובות ואדומות על גבי המפה.

העבר את העכבר לנקודה הצבעונית על מנת לראות את שם התחנה.

לאחר מכן, לחץ כדי לראות את תוכן ואת תחזיות מזג האוויר.

כדי לשנות את המפה: לחץ על הכפתורים הירוקים עם הפלוס השחור כדי להתקרב; על הכפתור הירוק עם המקף כדי להתרחק; או בחיצים הירוקים למפות סמוכות.


METAR-TAF: